createdAt,value
2019-04-03T00:01:10.080Z,4.40
2019-04-03T00:03:39.216Z,8.27
2019-04-03T00:06:08.356Z,5.97
2019-04-03T00:08:37.703Z,6.40
2019-04-03T00:11:08.663Z,6.93
2019-04-03T00:13:37.657Z,5.07
2019-04-03T00:16:06.877Z,6.03
2019-04-03T00:18:36.068Z,5.10
2019-04-03T00:21:05.261Z,5.33
2019-04-03T00:23:34.385Z,4.47
2019-04-03T00:26:03.666Z,3.30
2019-04-03T00:28:32.845Z,3.73
2019-04-03T00:31:02.079Z,2.70
2019-04-03T00:33:31.411Z,5.73
2019-04-03T00:36:00.668Z,3.93
2019-04-03T00:38:29.796Z,2.70
2019-04-03T00:40:58.804Z,2.53
2019-04-03T00:43:28.038Z,3.33
2019-04-03T00:45:57.183Z,3.70
2019-04-03T00:48:26.384Z,2.60
2019-04-03T00:50:57.369Z,3.80
2019-04-03T00:53:27.634Z,3.37
2019-04-03T00:55:57.420Z,3.30
2019-04-03T00:58:36.791Z,2.90
2019-04-03T01:01:07.730Z,3.37
2019-04-03T01:03:36.959Z,3.17
2019-04-03T01:06:06.232Z,3.30
2019-04-03T01:08:35.422Z,4.07
2019-04-03T01:11:04.799Z,3.30
2019-04-03T01:13:34.241Z,3.53
2019-04-03T01:16:03.516Z,3.40
2019-04-03T01:18:35.155Z,5.17
2019-04-03T01:21:06.159Z,4.57
2019-04-03T01:23:37.424Z,4.00
2019-04-03T01:26:09.135Z,4.70
2019-04-03T01:28:37.624Z,4.03
2019-04-03T01:31:06.831Z,5.20
2019-04-03T01:33:36.065Z,6.23
2019-04-03T01:36:05.406Z,5.67
2019-04-03T01:38:34.556Z,7.20
2019-04-03T01:41:04.036Z,5.77
2019-04-03T01:43:33.199Z,7.23
2019-04-03T01:46:02.264Z,7.93
2019-04-03T01:48:31.479Z,9.80
2019-04-03T01:51:00.754Z,10.13
2019-04-03T01:53:30.870Z,11.40
2019-04-03T01:56:00.616Z,12.43
2019-04-03T01:58:29.747Z,13.87
2019-04-03T02:00:58.908Z,14.73
2019-04-03T02:03:28.092Z,14.43
2019-04-03T02:05:57.290Z,14.07
2019-04-03T02:08:26.378Z,14.53
2019-04-03T02:10:55.884Z,15.00
2019-04-03T02:13:25.241Z,16.70
2019-04-03T02:15:54.486Z,14.80
2019-04-03T02:18:25.245Z,16.97
2019-04-03T02:20:57.320Z,17.43
2019-04-03T02:23:25.607Z,19.40
2019-04-03T02:25:54.672Z,20.73
2019-04-03T02:28:23.875Z,21.97
2019-04-03T02:30:53.071Z,19.27
2019-04-03T02:33:22.373Z,19.03
2019-04-03T02:35:51.680Z,21.70
2019-04-03T02:38:22.670Z,20.03
2019-04-03T02:40:51.849Z,22.67
2019-04-03T02:43:21.072Z,18.43
2019-04-03T02:45:50.326Z,19.90
2019-04-03T02:48:19.539Z,19.13
2019-04-03T02:50:48.922Z,20.53
2019-04-03T02:53:18.143Z,21.67
2019-04-03T02:55:47.397Z,17.47
2019-04-03T02:58:21.463Z,18.57
2019-04-03T03:00:48.563Z,19.63
2019-04-03T03:03:18.497Z,17.23
2019-04-03T03:05:47.835Z,19.03
2019-04-03T03:08:17.400Z,17.90
2019-04-03T03:10:47.001Z,16.13
2019-04-03T03:13:16.351Z,15.03
2019-04-03T03:15:45.558Z,15.20
2019-04-03T03:18:15.032Z,19.40
2019-04-03T03:20:44.534Z,20.27
2019-04-03T03:23:13.931Z,17.77
2019-04-03T03:25:43.543Z,16.13
2019-04-03T03:28:14.855Z,15.63
2019-04-03T03:30:54.955Z,17.57
2019-04-03T03:33:32.968Z,15.90
2019-04-03T03:35:48.869Z,15.73
2019-04-03T03:38:18.606Z,16.00
2019-04-03T03:40:49.317Z,11.57
2019-04-03T03:43:18.757Z,13.33
2019-04-03T03:45:51.394Z,12.90
2019-04-03T03:48:19.615Z,11.17
2019-04-03T03:50:48.894Z,15.37
2019-04-03T03:53:18.369Z,13.77
2019-04-03T03:55:48.232Z,10.27
2019-04-03T03:58:19.116Z,12.17
2019-04-03T04:00:52.284Z,11.97
2019-04-03T04:03:20.257Z,9.20
2019-04-03T04:05:53.872Z,9.97
2019-04-03T04:08:20.959Z,15.30
2019-04-03T04:10:52.304Z,10.17
2019-04-03T04:13:21.565Z,14.63
2019-04-03T04:15:50.961Z,10.97
2019-04-03T04:18:22.362Z,8.50
2019-04-03T04:20:51.204Z,9.20
2019-04-03T04:23:23.085Z,16.90
2019-04-03T04:25:52.036Z,12.37
2019-04-03T04:28:21.909Z,10.63
2019-04-03T04:30:50.986Z,15.63
2019-04-03T04:33:20.117Z,12.73
2019-04-03T04:35:51.365Z,12.03
2019-04-03T04:38:20.091Z,10.73
2019-04-03T04:40:49.448Z,12.77
2019-04-03T04:43:18.851Z,12.50
2019-04-03T04:45:48.212Z,13.60
2019-04-03T04:48:20.368Z,12.70
2019-04-03T04:50:48.083Z,13.20
2019-04-03T04:53:17.193Z,12.17
2019-04-03T04:55:46.418Z,12.80
2019-04-03T04:58:15.626Z,11.17
2019-04-03T05:00:47.531Z,11.57
2019-04-03T05:03:17.056Z,10.73
2019-04-03T05:06:05.571Z,11.80
2019-04-03T05:08:34.673Z,12.40
2019-04-03T05:11:05.563Z,10.43
2019-04-03T05:13:35.929Z,11.27
2019-04-03T05:16:06.122Z,12.83
2019-04-03T05:18:35.706Z,13.90
2019-04-03T05:21:05.357Z,13.93
2019-04-03T05:23:34.717Z,14.13
2019-04-03T05:26:03.937Z,15.07
2019-04-03T05:28:34.231Z,19.27
2019-04-03T05:31:04.011Z,15.67
2019-04-03T05:33:33.402Z,15.90
2019-04-03T05:36:02.675Z,18.10
2019-04-03T05:38:32.110Z,17.60
2019-04-03T05:41:01.391Z,19.00
2019-04-03T05:43:33.059Z,19.57
2019-04-03T05:46:02.245Z,16.10
2019-04-03T05:48:31.408Z,19.20
2019-04-03T05:51:01.855Z,20.53
2019-04-03T05:53:31.458Z,16.73
2019-04-03T05:56:00.719Z,19.20
2019-04-03T05:58:30.050Z,20.00
2019-04-03T06:01:04.884Z,21.53
2019-04-03T06:03:40.490Z,18.90
2019-04-03T06:06:01.798Z,15.43
2019-04-03T06:08:33.934Z,19.43
2019-04-03T06:11:04.000Z,16.40
2019-04-03T06:13:32.860Z,16.57
2019-04-03T06:16:02.261Z,19.90
2019-04-03T06:18:32.419Z,16.00
2019-04-03T06:21:01.736Z,15.80
2019-04-03T06:23:31.217Z,17.33
2019-04-03T06:26:02.164Z,15.77
2019-04-03T06:28:31.360Z,13.50
2019-04-03T06:31:00.789Z,14.27
2019-04-03T06:33:31.714Z,17.50
2019-04-03T06:36:00.752Z,13.20
2019-04-03T06:38:29.923Z,16.77
2019-04-03T06:40:59.076Z,17.27
2019-04-03T06:43:30.430Z,16.37
2019-04-03T06:46:00.409Z,15.87
2019-04-03T06:48:29.748Z,15.17
2019-04-03T06:50:59.195Z,17.63
2019-04-03T06:53:29.052Z,15.53
2019-04-03T06:55:58.459Z,14.70
2019-04-03T06:58:37.316Z,16.07
2019-04-03T07:00:58.662Z,18.20
2019-04-03T07:03:28.102Z,16.87
2019-04-03T07:05:57.435Z,14.50
2019-04-03T07:08:32.485Z,19.03
2019-04-03T07:10:57.617Z,13.27
2019-04-03T07:13:29.574Z,18.33
2019-04-03T07:15:57.855Z,13.93
2019-04-03T07:18:29.862Z,14.30
2019-04-03T07:20:59.425Z,14.03
2019-04-03T07:23:30.396Z,15.77
2019-04-03T07:25:59.625Z,16.77
2019-04-03T07:28:30.639Z,16.20
2019-04-03T07:31:00.396Z,18.00
2019-04-03T07:33:35.004Z,20.00
2019-04-03T07:36:04.795Z,15.67
2019-04-03T07:38:34.796Z,16.47
2019-04-03T07:41:04.556Z,18.63
2019-04-03T07:43:33.731Z,17.20
2019-04-03T07:46:03.366Z,20.80
2019-04-03T07:48:33.697Z,17.70
2019-04-03T07:51:03.451Z,16.53
2019-04-03T07:53:32.801Z,17.17
2019-04-03T07:56:02.389Z,12.83
2019-04-03T07:58:32.572Z,11.53
2019-04-03T08:01:01.865Z,15.30
2019-04-03T08:03:31.113Z,15.67
2019-04-03T08:06:01.071Z,13.00
2019-04-03T08:08:31.469Z,17.37
2019-04-03T08:11:01.871Z,13.37
2019-04-03T08:13:31.913Z,14.10
2019-04-03T08:16:01.701Z,21.37
2019-04-03T08:18:32.245Z,19.83
2019-04-03T08:21:02.256Z,19.47
2019-04-03T08:23:31.699Z,22.63
2019-04-03T08:26:00.992Z,21.20
2019-04-03T08:28:30.791Z,17.47
2019-04-03T08:31:00.108Z,18.53
2019-04-03T08:33:32.830Z,16.23
2019-04-03T08:36:02.201Z,13.30
2019-04-03T08:38:31.830Z,14.23
2019-04-03T08:41:03.308Z,15.83
2019-04-03T08:43:33.099Z,16.37
2019-04-03T08:46:02.350Z,12.73
2019-04-03T08:48:32.062Z,10.83
2019-04-03T08:51:03.011Z,12.70
2019-04-03T08:53:32.513Z,12.10
2019-04-03T08:56:01.988Z,9.93
2019-04-03T08:58:31.475Z,9.80
2019-04-03T09:01:03.948Z,7.23
2019-04-03T09:03:31.986Z,9.10
2019-04-03T09:06:01.140Z,7.60
2019-04-03T09:08:30.267Z,8.27
2019-04-03T09:10:59.612Z,7.57
2019-04-03T09:13:28.971Z,12.47
2019-04-03T09:15:59.329Z,9.27
2019-04-03T09:18:30.803Z,11.87
2019-04-03T09:21:00.338Z,10.30
2019-04-03T09:23:31.227Z,13.67
2019-04-03T09:26:02.576Z,15.33
2019-04-03T09:28:31.667Z,18.83
2019-04-03T09:31:01.299Z,18.45
2019-04-03T09:33:30.605Z,19.33
2019-04-03T09:36:01.629Z,21.15
2019-04-03T09:38:31.225Z,16.60
2019-04-03T09:41:00.395Z,19.05
2019-04-03T09:43:30.006Z,18.30
2019-04-03T09:46:00.738Z,18.50
2019-04-03T09:48:29.983Z,15.47
2019-04-03T09:50:59.250Z,15.85
2019-04-03T09:53:28.459Z,11.87
2019-04-03T09:55:58.055Z,13.30
2019-04-03T09:58:27.581Z,14.38
2019-04-03T10:00:56.831Z,11.30
2019-04-03T10:03:27.059Z,15.38
2019-04-03T10:05:56.472Z,12.97
2019-04-03T10:08:25.969Z,12.98
2019-04-03T10:10:55.809Z,12.25
2019-04-03T10:13:26.300Z,11.57
2019-04-03T10:15:55.974Z,10.68
2019-04-03T10:18:25.271Z,12.23
2019-04-03T10:20:54.441Z,14.00
2019-04-03T10:23:23.544Z,14.10
2019-04-03T10:25:53.667Z,14.63
2019-04-03T10:28:23.185Z,13.98
2019-04-03T10:30:53.487Z,10.10
2019-04-03T10:33:23.249Z,8.77
2019-04-03T10:35:52.519Z,6.67
2019-04-03T10:38:21.986Z,6.17
2019-04-03T10:40:51.433Z,4.97
2019-04-03T10:43:20.607Z,8.73
2019-04-03T10:45:49.883Z,7.13
2019-04-03T10:48:19.149Z,5.10
2019-04-03T10:50:48.433Z,6.85
2019-04-03T10:53:17.833Z,4.78
2019-04-03T10:55:48.459Z,4.62
2019-04-03T10:58:17.868Z,5.33
2019-04-03T11:00:47.272Z,5.42
2019-04-03T11:03:16.516Z,4.62
2019-04-03T11:05:45.835Z,5.25
2019-04-03T11:08:34.256Z,5.63
2019-04-03T11:11:04.917Z,7.42
2019-04-03T11:13:34.797Z,6.62
2019-04-03T11:16:04.195Z,7.25
2019-04-03T11:18:33.504Z,5.12
2019-04-03T11:21:03.256Z,6.10
2019-04-03T11:23:40.062Z,5.08
2019-04-03T11:26:03.803Z,5.53
2019-04-03T11:28:33.099Z,5.00
2019-04-03T11:31:02.520Z,5.40
2019-04-03T11:33:31.888Z,5.78
2019-04-03T11:36:01.162Z,6.33
2019-04-03T11:38:30.462Z,7.55
2019-04-03T11:41:11.460Z,5.42
2019-04-03T11:43:31.540Z,6.30
2019-04-03T11:46:01.492Z,6.33
2019-04-03T11:48:30.655Z,5.90
2019-04-03T11:51:00.862Z,7.60
2019-04-03T11:53:30.655Z,5.53
2019-04-03T11:56:00.013Z,2.83
2019-04-03T11:58:29.274Z,3.03
2019-04-03T12:00:58.631Z,3.15
2019-04-03T12:03:27.828Z,2.47
2019-04-03T12:05:56.986Z,2.37
2019-04-03T12:08:28.510Z,3.30
2019-04-03T12:10:57.258Z,2.33
2019-04-03T12:13:26.583Z,2.65
2019-04-03T12:15:58.154Z,2.27
2019-04-03T12:18:26.799Z,3.47
2019-04-03T12:20:56.012Z,4.47
2019-04-03T12:23:26.766Z,3.07
2019-04-03T12:25:56.185Z,3.10
2019-04-03T12:28:25.443Z,3.20
2019-04-03T12:30:54.884Z,3.10
2019-04-03T12:33:24.316Z,3.03
2019-04-03T12:35:53.855Z,2.65
2019-04-03T12:38:23.437Z,2.33
2019-04-03T12:40:53.474Z,2.50
2019-04-03T12:43:23.095Z,2.30
2019-04-03T12:45:58.081Z,1.90
2019-04-03T12:48:27.868Z,2.20
2019-04-03T12:50:56.938Z,3.00
2019-04-03T12:53:27.621Z,4.35
2019-04-03T12:56:01.919Z,2.70
2019-04-03T12:58:32.193Z,2.70
2019-04-03T13:01:02.335Z,2.87
2019-04-03T13:03:37.856Z,4.40
2019-04-03T13:06:09.225Z,2.27
2019-04-03T13:08:38.519Z,2.67
2019-04-03T13:11:07.865Z,2.52
2019-04-03T13:13:38.650Z,3.80
2019-04-03T13:16:10.252Z,2.87
2019-04-03T13:18:38.778Z,4.00
2019-04-03T13:21:09.245Z,2.50
2019-04-03T13:23:38.786Z,3.55
2019-04-03T13:26:08.498Z,2.98
2019-04-03T13:28:40.241Z,2.90
2019-04-03T13:31:09.828Z,3.10
2019-04-03T13:33:39.284Z,3.83
2019-04-03T13:36:08.650Z,3.05
2019-04-03T13:38:38.151Z,3.52
2019-04-03T13:41:08.020Z,3.05
2019-04-03T13:43:38.452Z,2.67
2019-04-03T13:46:07.985Z,3.15
2019-04-03T13:48:37.783Z,2.55
2019-04-03T13:51:07.346Z,3.33
2019-04-03T13:53:36.721Z,3.98
2019-04-03T13:56:08.237Z,3.08
2019-04-03T13:58:37.244Z,2.37
2019-04-03T14:01:09.209Z,4.05
2019-04-03T14:03:37.527Z,2.90
2019-04-03T14:06:06.752Z,2.92
2019-04-03T14:08:35.898Z,4.95
2019-04-03T14:11:05.014Z,2.98
2019-04-03T14:13:34.590Z,3.72
2019-04-03T14:16:04.176Z,4.05
2019-04-03T14:18:33.473Z,2.75
2019-04-03T14:21:02.644Z,3.40
2019-04-03T14:23:34.147Z,3.52
2019-04-03T14:26:06.864Z,2.58
2019-04-03T14:28:35.293Z,3.37
2019-04-03T14:31:05.203Z,4.15
2019-04-03T14:33:43.403Z,3.22
2019-04-03T14:36:05.950Z,4.65
2019-04-03T14:38:35.471Z,3.98
2019-04-03T14:41:05.220Z,4.28
2019-04-03T14:43:35.584Z,3.98
2019-04-03T14:46:05.055Z,4.40
2019-04-03T14:48:34.256Z,4.53
2019-04-03T14:51:06.298Z,5.33
2019-04-03T14:53:34.372Z,4.37
2019-04-03T14:56:03.609Z,5.08
2019-04-03T14:58:33.815Z,4.22
2019-04-03T15:01:03.210Z,6.97
2019-04-03T15:03:51.802Z,7.28
2019-04-03T15:06:21.083Z,5.97
2019-04-03T15:08:50.276Z,8.53
2019-04-03T15:11:21.250Z,7.03
2019-04-03T15:13:51.179Z,6.47
2019-04-03T15:16:21.011Z,6.40
2019-04-03T15:18:50.337Z,6.72
2019-04-03T15:21:22.209Z,7.15
2019-04-03T15:23:50.808Z,6.72
2019-04-03T15:26:22.236Z,8.20
2019-04-03T15:28:51.271Z,7.12
2019-04-03T15:31:23.198Z,10.28
2019-04-03T15:33:53.151Z,7.40
2019-04-03T15:36:22.681Z,5.97
2019-04-03T15:38:59.889Z,6.22
2019-04-03T15:44:32.280Z,5.45
2019-04-03T15:47:02.244Z,5.65
2019-04-03T15:49:32.214Z,5.00
2019-04-03T15:52:01.577Z,7.67
2019-04-03T15:54:32.924Z,7.75
2019-04-03T15:57:02.177Z,5.80
2019-04-03T15:59:31.930Z,5.10
2019-04-03T16:02:01.894Z,5.10
2019-04-03T16:04:33.444Z,5.87
2019-04-03T16:07:02.113Z,4.40
2019-04-03T16:09:31.235Z,6.78
2019-04-03T16:12:12.478Z,8.03
2019-04-03T16:14:56.259Z,5.87
2019-04-03T16:17:23.385Z,5.17
2019-04-03T16:19:53.099Z,4.45
2019-04-03T16:22:22.687Z,3.22
2019-04-03T16:24:53.693Z,3.83
2019-04-03T16:27:22.790Z,4.00
2019-04-03T16:29:51.887Z,4.78
2019-04-03T16:32:21.028Z,4.30
2019-04-03T16:34:50.673Z,3.77
2019-04-03T16:37:21.482Z,3.90
2019-04-03T16:39:50.876Z,4.35
2019-04-03T16:42:20.241Z,3.72
2019-04-03T16:44:49.437Z,4.03
2019-04-03T16:47:19.032Z,2.72
2019-04-03T16:49:56.227Z,2.87
2019-04-03T16:52:25.553Z,2.95
2019-04-03T16:54:55.057Z,4.20
2019-04-03T16:57:24.212Z,2.77
2019-04-03T16:59:53.336Z,2.77
2019-04-03T17:02:24.787Z,2.92
2019-04-03T17:04:53.368Z,1.55
2019-04-03T17:07:22.969Z,3.05
2019-04-03T17:09:52.321Z,2.10
2019-04-03T17:12:21.478Z,3.00
2019-04-03T17:14:50.953Z,2.45
2019-04-03T17:17:20.858Z,2.17
2019-04-03T17:19:51.694Z,2.00
2019-04-03T17:22:21.551Z,1.90
2019-04-03T17:24:54.414Z,1.67
2019-04-03T17:27:22.074Z,1.40
2019-04-03T17:29:51.495Z,2.57
2019-04-03T17:32:20.987Z,2.03
2019-04-03T17:34:51.603Z,2.57
2019-04-03T17:37:20.959Z,2.62
2019-04-03T17:39:52.345Z,2.97
2019-04-03T17:42:20.978Z,2.10
2019-04-03T17:44:50.091Z,2.80
2019-04-03T17:47:19.946Z,2.80
2019-04-03T17:49:49.726Z,2.30
2019-04-03T17:52:18.990Z,2.20
2019-04-03T17:54:48.353Z,2.60
2019-04-03T17:57:17.923Z,2.80
2019-04-03T17:59:49.037Z,3.03
2019-04-03T18:02:18.129Z,2.90
2019-04-03T18:04:48.926Z,3.20
2019-04-03T18:07:18.457Z,3.13
2019-04-03T18:09:47.897Z,2.97
2019-04-03T18:12:21.029Z,5.25
2019-04-03T18:14:48.143Z,4.03
2019-04-03T18:17:19.317Z,4.03
2019-04-03T18:19:48.369Z,4.87
2019-04-03T18:22:20.041Z,4.87
2019-04-03T18:24:48.554Z,4.37
2019-04-03T18:27:17.816Z,4.37
2019-04-03T18:29:46.969Z,5.07
2019-04-03T18:32:19.132Z,5.27
2019-04-03T18:34:51.041Z,5.33
2019-04-03T18:37:19.173Z,5.90
2019-04-03T18:39:51.187Z,5.10
2019-04-03T18:42:19.199Z,5.53
2019-04-03T18:44:48.281Z,4.37
2019-04-03T18:47:17.486Z,5.00
2019-04-03T18:49:46.689Z,4.77
2019-04-03T18:52:15.995Z,6.27
2019-04-03T18:54:45.429Z,4.17
2019-04-03T18:57:14.997Z,4.30
2019-04-03T18:59:45.645Z,5.13
2019-04-03T19:02:14.862Z,4.20
2019-04-03T19:04:44.073Z,4.17
2019-04-03T19:07:15.234Z,4.80
2019-04-03T19:09:44.685Z,5.03
2019-04-03T19:12:13.835Z,4.60
2019-04-03T19:14:42.955Z,4.30
2019-04-03T19:17:12.077Z,4.80
2019-04-03T19:19:44.279Z,3.80
2019-04-03T19:22:13.605Z,4.20
2019-04-03T19:24:42.826Z,4.30
2019-04-03T19:27:12.223Z,3.50
2019-04-03T19:29:41.503Z,3.73
2019-04-03T19:32:12.253Z,5.27
2019-04-03T19:34:42.054Z,3.80
2019-04-03T19:37:11.227Z,3.33
2019-04-03T19:39:40.368Z,3.77
2019-04-03T19:42:09.785Z,3.93
2019-04-03T19:44:41.576Z,4.97
2019-04-03T19:47:10.009Z,6.00
2019-04-03T19:49:40.263Z,4.10
2019-04-03T19:52:09.571Z,4.63
2019-04-03T19:54:38.806Z,7.53
2019-04-03T19:57:08.112Z,6.90
2019-04-03T19:59:37.225Z,5.50
2019-04-03T20:02:09.305Z,5.43
2019-04-03T20:04:37.335Z,4.50
2019-04-03T20:07:06.496Z,5.90
2019-04-03T20:09:36.387Z,7.23
2019-04-03T20:12:07.074Z,5.77
2019-04-03T20:14:36.739Z,4.53
2019-04-03T20:17:06.471Z,4.63
2019-04-03T20:19:35.993Z,6.00
2019-04-03T20:22:07.071Z,6.23
2019-04-03T20:24:36.244Z,6.37
2019-04-03T20:27:05.796Z,6.63
2019-04-03T20:29:34.983Z,6.40
2019-04-03T20:32:05.068Z,7.30
2019-04-03T20:34:34.951Z,5.53
2019-04-03T20:37:05.711Z,4.97
2019-04-03T20:39:34.882Z,5.17
2019-04-03T20:42:07.351Z,5.50
2019-04-03T20:44:34.999Z,6.20
2019-04-03T20:47:04.303Z,5.33
2019-04-03T20:49:33.908Z,5.77
2019-04-03T20:52:05.828Z,7.33
2019-04-03T20:54:35.049Z,5.63
2019-04-03T20:57:04.373Z,6.30
2019-04-03T20:59:33.516Z,6.60
2019-04-03T21:02:02.825Z,8.13
2019-04-03T21:04:32.096Z,6.30
2019-04-03T21:07:01.319Z,5.03
2019-04-03T21:09:32.727Z,5.87
2019-04-03T21:12:03.094Z,5.30
2019-04-03T21:14:33.051Z,5.33
2019-04-03T21:17:05.505Z,5.67
2019-04-03T21:19:34.680Z,5.83
2019-04-03T21:22:04.019Z,6.33
2019-04-03T21:24:34.320Z,8.73
2019-04-03T21:27:05.161Z,7.43
2019-04-03T21:29:36.134Z,6.67
2019-04-03T21:32:10.642Z,7.30
2019-04-03T21:34:44.455Z,7.27
2019-04-03T21:37:14.673Z,8.50
2019-04-03T21:39:47.617Z,10.27
2019-04-03T21:42:18.364Z,9.93
2019-04-03T21:44:57.830Z,8.37
2019-04-03T21:47:27.066Z,9.43
2019-04-03T21:49:56.266Z,9.77
2019-04-03T21:52:25.505Z,11.83
2019-04-03T21:54:54.701Z,10.37
2019-04-03T21:57:23.841Z,10.10
2019-04-03T21:59:53.011Z,13.20
2019-04-03T22:02:22.296Z,11.40
2019-04-03T22:04:51.887Z,11.77
2019-04-03T22:07:22.518Z,12.70
2019-04-03T22:09:51.688Z,11.10
2019-04-03T22:12:21.222Z,12.53
2019-04-03T22:14:50.457Z,12.67
2019-04-03T22:17:21.781Z,12.20
2019-04-03T22:19:50.669Z,13.60
2019-04-03T22:22:19.920Z,12.93
2019-04-03T22:24:49.102Z,13.70
2019-04-03T22:27:18.429Z,12.97
2019-04-03T22:29:48.992Z,13.27
2019-04-03T22:32:18.801Z,15.63
2019-04-03T22:34:48.063Z,15.10
2019-04-03T22:37:17.306Z,14.30
2019-04-03T22:39:47.569Z,13.90
2019-04-03T22:42:16.711Z,14.27
2019-04-03T22:44:47.654Z,15.27
2019-04-03T22:47:16.672Z,14.97
2019-04-03T22:49:45.763Z,18.33
2019-04-03T22:52:15.008Z,17.17
2019-04-03T22:54:44.566Z,17.17
2019-04-03T22:57:13.687Z,15.97
2019-04-03T22:59:43.221Z,17.27
2019-04-03T23:02:12.625Z,15.93
2019-04-03T23:04:46.106Z,16.00
2019-04-03T23:07:13.370Z,16.23
2019-04-03T23:09:42.643Z,15.80
2019-04-03T23:12:11.796Z,17.70
2019-04-03T23:14:40.945Z,16.50
2019-04-03T23:17:13.917Z,15.77
2019-04-03T23:19:43.947Z,16.67
2019-04-03T23:22:13.529Z,18.13
2019-04-03T23:24:43.263Z,17.73
2019-04-03T23:27:12.556Z,16.97
2019-04-03T23:29:41.669Z,16.07
2019-04-03T23:32:10.915Z,18.20
2019-04-03T23:34:40.237Z,21.30
2019-04-03T23:37:09.434Z,18.33
2019-04-03T23:39:38.671Z,18.33
2019-04-03T23:42:08.141Z,16.43
2019-04-03T23:44:37.455Z,17.97
2019-04-03T23:47:06.661Z,18.57
2019-04-03T23:49:36.325Z,18.90
2019-04-03T23:52:05.495Z,18.23
2019-04-03T23:54:34.630Z,16.47
2019-04-03T23:57:04.000Z,18.87
2019-04-03T23:59:33.395Z,17.73
